Time;durP1;ratioP1;P1;durP2;ratioP2;P2;SDS_P1;SDS_P2;PMS_P1;PMS_P2;Temp;Humidity;BMP_temperature;BMP_pressure;BME280_temperature;BME280_humidity;BME280_pressure;Samples;Min_cycle;Max_cycle;Signal;HPM_P1;HPM_P2
2024/02/02 00:01:26;;;;;;;5.10;2.03;;;;;;;-1.39;89.07;99136.28;5039804;28;20280;-65
2024/02/02 00:03:51;;;;;;;6.13;1.97;;;;;;;-1.80;87.53;99063.97;5041952;28;20517;-65
2024/02/02 00:12:23;;;;;;;5.10;1.90;;;;;;;-1.33;87.94;99172.34;5047512;28;20317;-65
2024/02/02 00:14:48;;;;;;;9.50;3.00;;;;;;;-1.27;86.24;99195.34;5039037;28;20279;-67
2024/02/02 00:17:14;;;;;;;2.67;2.00;;;;;;;-1.35;87.24;99176.03;5042930;28;20507;-64
2024/02/02 00:19:58;;;;;;;4.87;2.17;;;;;;;-1.38;88.07;99178.91;5043578;28;20110;-67
2024/02/02 00:22:42;;;;;;;6.27;2.33;;;;;;;-1.34;89.14;99198.56;5049106;28;20045;-65
2024/02/02 00:25:08;;;;;;;3.50;2.37;;;;;;;-1.42;89.02;99198.38;5045506;28;20322;-66
2024/02/02 00:27:33;;;;;;;3.90;2.00;;;;;;;-1.45;90.40;99194.22;5039787;28;20315;-66
2024/02/02 00:32:44;;;;;;;4.57;2.60;;;;;;;-1.46;89.78;99210.81;5050093;28;20398;-68
2024/02/02 00:35:13;;;;;;;5.57;2.20;;;;;;;-1.62;90.15;99192.97;5039720;28;20285;-67
2024/02/02 00:37:39;;;;;;;9.67;2.33;;;;;;;-1.48;89.47;99220.56;5039798;28;20306;-65
2024/02/02 00:40:06;;;;;;;5.43;2.40;;;;;;;-1.46;89.00;99217.84;5039257;28;20320;-64
2024/02/02 00:45:34;;;;;;;6.73;2.17;;;;;;;-1.52;87.38;99221.78;5041078;28;20381;-64
2024/02/02 00:48:00;;;;;;;2.80;1.83;;;;;;;-1.53;87.53;99232.34;5041135;28;20375;-66
2024/02/02 00:53:09;;;;;;;8.10;2.43;;;;;;;-1.70;87.38;99223.28;5038784;28;20123;-65
2024/02/02 00:55:35;;;;;;;3.57;2.17;;;;;;;-1.67;87.39;99213.41;5042385;28;20370;-65
2024/02/02 00:58:00;;;;;;;3.60;2.00;;;;;;;-1.57;87.12;99237.81;5034640;28;20116;-67
2024/02/02 01:00:26;;;;;;;6.17;1.97;;;;;;;-1.65;88.08;99229.78;5036241;28;20444;-67
2024/02/02 01:02:51;;;;;;;6.53;1.70;;;;;;;-1.79;88.54;99209.16;5040742;28;20041;-66
2024/02/02 01:05:35;;;;;;;5.80;2.47;;;;;;;-1.60;88.68;99237.22;5043005;28;20045;-66
2024/02/02 01:08:02;;;;;;;5.50;2.07;;;;;;;-1.63;88.60;99238.31;5036840;28;20045;-67
2024/02/02 01:10:27;;;;;;;6.37;2.00;;;;;;;-1.65;88.73;99232.38;5038533;28;20293;-66
2024/02/02 01:12:53;;;;;;;11.97;2.20;;;;;;;-1.83;88.70;99204.31;5043896;28;20280;-66
2024/02/02 01:15:18;;;;;;;6.40;2.40;;;;;;;-1.64;88.96;99239.25;5039870;28;20084;-69
2024/02/02 01:17:45;;;;;;;8.70;1.70;;;;;;;-1.65;89.32;99228.94;5045981;28;20045;-67
2024/02/02 01:20:14;;;;;;;4.17;1.80;;;;;;;-1.63;89.93;99216.59;5041540;28;20291;-66
2024/02/02 01:25:24;;;;;;;3.67;2.07;;;;;;;-1.63;89.83;99212.22;5050139;28;20279;-68
2024/02/02 01:28:08;;;;;;;4.60;1.80;;;;;;;-1.44;89.65;99247.28;5043500;28;20278;-66
2024/02/02 01:30:34;;;;;;;4.07;1.90;;;;;;;-1.49;89.34;99233.75;5038753;28;20889;-67
2024/02/02 01:35:43;;;;;;;7.87;2.70;;;;;;;-1.61;89.18;99235.56;5051454;28;20122;-66
2024/02/02 01:38:50;;;;;;;5.77;2.57;;;;;;;-1.41;89.38;99250.47;5050693;28;20302;-65
2024/02/02 01:41:17;;;;;;;10.17;1.87;;;;;;;-1.48;89.39;99235.41;5044037;28;20540;-67
2024/02/02 01:44:01;;;;;;;7.37;2.67;;;;;;;-1.40;89.56;99253.91;5054771;28;20287;-67
2024/02/02 01:46:27;;;;;;;7.50;2.07;;;;;;;-1.53;89.26;99245.41;5047403;28;20283;-67
2024/02/02 01:48:52;;;;;;;5.63;2.23;;;;;;;-1.54;90.25;99248.97;5047443;28;20271;-65
2024/02/02 01:51:18;;;;;;;6.53;1.87;;;;;;;-1.75;90.63;99221.00;5061000;28;20041;-68
2024/02/02 01:54:02;;;;;;;16.73;3.33;;;;;;;-1.78;91.63;99231.69;5040734;28;20192;-68
2024/02/02 01:56:27;;;;;;;2.30;2.10;;;;;;;-1.90;90.69;99230.88;5048742;28;20053;-65
2024/02/02 01:58:53;;;;;;;9.33;3.10;;;;;;;-1.96;90.80;99235.78;5045882;28;20771;-68
2024/02/02 02:01:18;;;;;;;9.47;1.90;;;;;;;-1.98;91.42;99227.22;5048662;28;20049;-67
2024/02/02 02:03:45;;;;;;;2.83;1.80;;;;;;;-2.08;92.03;99226.28;5044825;28;20036;-67
2024/02/02 02:06:10;;;;;;;2.40;2.20;;;;;;;-2.16;92.49;99224.28;5040280;28;20041;-66
2024/02/02 02:08:36;;;;;;;5.90;2.20;;;;;;;-2.14;92.64;99230.19;5044812;28;20280;-65
2024/02/02 02:11:02;;;;;;;2.93;2.10;;;;;;;-2.09;93.27;99250.69;5036900;28;20040;-66
2024/02/02 02:13:30;;;;;;;5.53;1.87;;;;;;;-2.22;92.74;99229.97;5047344;28;20211;-68
2024/02/02 02:15:55;;;;;;;6.68;2.65;;;;;;;-2.40;93.44;99216.56;5035835;28;20668;-66
2024/02/02 02:21:28;;;;;;;2.33;1.57;;;;;;;-2.16;95.65;99254.75;5052248;28;20041;-65
2024/02/02 02:24:12;;;;;;;8.77;3.63;;;;;;;-2.24;96.27;99245.75;5042827;28;20323;-67
2024/02/02 02:26:39;;;;;;;3.10;1.80;;;;;;;-2.11;96.94;99252.59;5037635;28;20287;-67
2024/02/02 02:29:05;;;;;;;4.13;1.67;;;;;;;-1.94;96.42;99266.00;5048513;28;20272;-66
2024/02/02 02:31:30;;;;;;;6.80;2.47;;;;;;;-1.89;95.75;99252.59;5041036;28;20047;-67
2024/02/02 02:33:56;;;;;;;3.57;1.77;;;;;;;-1.77;95.55;99261.22;5047310;28;20038;-65
2024/02/02 02:39:43;;;;;;;6.40;1.80;;;;;;;-1.61;95.33;99259.91;5044429;28;20049;-65
2024/02/02 02:42:08;;;;;;;2.90;1.90;;;;;;;-1.68;94.40;99250.91;5050140;28;20290;-66
2024/02/02 02:44:34;;;;;;;5.20;2.00;;;;;;;-1.69;94.39;99254.47;5043412;28;20283;-65
2024/02/02 02:47:00;;;;;;;6.20;1.93;;;;;;;-1.61;94.99;99259.91;5042879;28;20041;-65
2024/02/02 02:49:25;;;;;;;2.47;1.73;;;;;;;-1.48;94.73;99264.13;5042094;28;20458;-65
2024/02/02 02:51:51;;;;;;;3.50;2.30;;;;;;;-1.57;93.77;99243.03;5073893;28;20446;-65
2024/02/02 02:54:16;;;;;;;7.27;2.20;;;;;;;-1.62;93.46;99221.69;5041098;28;20065;-68
2024/02/02 02:56:41;;;;;;;4.97;2.67;;;;;;;-1.40;93.03;99270.41;5048301;28;20040;-63
2024/02/02 02:59:26;;;;;;;4.17;2.10;;;;;;;-1.32;93.67;99288.06;5039052;28;20047;-68
2024/02/02 03:01:52;;;;;;;6.07;2.00;;;;;;;-2.19;93.23;99147.09;5042552;28;20041;-63
2024/02/02 03:04:36;;;;;;;3.73;2.20;;;;;;;-1.26;91.34;99279.75;5039613;28;20288;-65
2024/02/02 03:07:20;;;;;;;3.67;1.80;;;;;;;-1.58;91.21;99225.72;5044359;28;20548;-65
2024/02/02 03:12:29;;;;;;;4.87;2.37;;;;;;;-1.15;90.92;99274.50;5040766;28;20279;-66
2024/02/02 03:14:55;;;;;;;4.57;2.30;;;;;;;-1.13;90.46;99284.81;5049403;28;20294;-65
2024/02/02 03:17:39;;;;;;;4.03;2.00;;;;;;;-1.14;90.83;99289.22;5034023;28;20091;-66
2024/02/02 03:23:09;;;;;;;7.00;2.07;;;;;;;-1.18;90.29;99298.22;5047433;28;20287;-66
2024/02/02 03:25:34;;;;;;;5.30;2.20;;;;;;;-1.20;91.41;99294.91;5029858;28;20276;-65
2024/02/02 03:28:00;;;;;;;4.87;1.77;;;;;;;-1.19;91.98;99299.19;5041710;28;20317;-68
2024/02/02 03:33:28;;;;;;;3.83;2.20;;;;;;;-1.28;94.77;99310.38;5041647;28;20044;-65
2024/02/02 03:35:53;;;;;;;3.37;1.73;;;;;;;-1.46;95.61;99297.00;5038389;28;20036;-64
2024/02/02 03:38:19;;;;;;;6.90;2.23;;;;;;;-1.45;99.27;99329.16;5044178;28;20452;-65
2024/02/02 03:40:44;;;;;;;6.57;2.33;;;;;;;-1.64;100.00;99301.09;5042240;28;20147;-67
2024/02/02 03:43:29;;;;;;;4.40;2.60;;;;;;;-1.52;100.00;99343.66;5035058;28;20115;-67
2024/02/02 03:45:54;;;;;;;5.50;2.33;;;;;;;-1.64;100.00;99328.00;5042836;28;20044;-67
2024/02/02 03:48:38;;;;;;;3.57;2.23;;;;;;;-1.65;100.00;99344.63;5023606;28;20306;-67
2024/02/02 03:51:04;;;;;;;3.40;2.78;;;;;;;-1.82;100.00;99319.00;5043348;28;20044;-66
2024/02/02 03:53:30;;;;;;;4.43;1.83;;;;;;;-1.89;100.00;99313.44;5042318;28;20033;-67
2024/02/02 03:55:55;;;;;;;5.00;1.97;;;;;;;-1.79;100.00;99331.81;5037925;28;20036;-68
2024/02/02 03:58:20;;;;;;;4.07;2.27;;;;;;;-1.87;100.00;99311.53;5044359;28;20124;-66
2024/02/02 04:00:46;;;;;;;4.63;2.30;;;;;;;-1.77;100.00;99322.06;5047324;28;20170;-66
2024/02/02 04:03:11;;;;;;;4.60;1.90;;;;;;;-1.81;100.00;99302.38;5042380;28;20044;-67
2024/02/02 04:05:39;;;;;;;5.20;1.90;;;;;;;-1.64;100.00;99335.84;5041357;28;20489;-66
2024/02/02 04:08:05;;;;;;;3.67;1.97;;;;;;;-1.68;100.00;99326.59;5039849;28;20071;-66
2024/02/02 04:13:34;;;;;;;3.95;2.25;;;;;;;-2.12;100.00;99277.03;5040682;28;20287;-68
2024/02/02 04:16:18;;;;;;;4.27;1.80;;;;;;;-1.85;100.00;99319.25;5040102;28;20703;-67
2024/02/02 04:18:44;;;;;;;3.03;1.87;;;;;;;-1.83;100.00;99314.72;5038602;28;20291;-68
2024/02/02 04:21:29;;;;;;;6.60;4.10;;;;;;;-1.86;100.00;99304.53;5043290;28;20349;-65
2024/02/02 04:24:13;;;;;;;2.53;2.33;;;;;;;-1.72;100.00;99335.63;5040340;28;20041;-65
2024/02/02 04:29:41;;;;;;;6.13;1.90;;;;;;;-1.81;100.00;99318.03;5049793;28;20087;-67
2024/02/02 04:32:06;;;;;;;6.03;1.87;;;;;;;-1.93;100.00;99319.00;5037186;28;20404;-69
2024/02/02 04:34:51;;;;;;;4.83;2.00;;;;;;;-1.71;100.00;99350.34;5039424;28;20037;-72
2024/02/02 04:37:16;;;;;;;3.90;2.05;;;;;;;-1.72;100.00;99340.84;5040881;28;20041;-67
2024/02/02 04:39:42;;;;;;;3.80;2.43;;;;;;;-1.67;100.00;99353.53;5040141;28;20036;-68
2024/02/02 04:42:07;;;;;;;5.93;2.57;;;;;;;-1.68;100.00;99360.53;5032625;28;20505;-68
2024/02/02 04:44:33;;;;;;;6.87;3.03;;;;;;;-1.76;100.00;99347.22;5041382;28;20040;-66
2024/02/02 04:49:45;;;;;;;4.40;2.30;;;;;;;-1.71;100.00;99354.72;5043095;28;20093;-66
2024/02/02 04:52:29;;;;;;;5.03;1.98;;;;;;;-1.77;100.00;99348.16;5047055;28;20287;-68
2024/02/02 04:54:56;;;;;;;6.07;2.63;;;;;;;-1.65;100.00;99359.47;5045784;28;20049;-68
2024/02/02 04:57:40;;;;;;;8.87;2.10;;;;;;;-1.73;100.00;99375.72;5040119;28;20311;-68
2024/02/02 05:00:07;;;;;;;7.03;2.28;;;;;;;-1.81;100.00;99367.63;5036542;28;20404;-69
2024/02/02 05:05:37;;;;;;;5.47;2.25;;;;;;;-2.03;100.00;99338.91;5038106;28;20079;-70
2024/02/02 05:11:06;;;;;;;5.90;2.20;;;;;;;-1.76;100.00;99383.75;5046457;28;20600;-70
2024/02/02 05:13:31;;;;;;;6.50;3.35;;;;;;;-1.82;100.00;99372.97;5046599;28;20029;-70
2024/02/02 05:15:57;;;;;;;9.10;3.20;;;;;;;-1.84;100.00;99380.91;5042685;28;20511;-68
2024/02/02 05:18:23;;;;;;;6.60;2.30;;;;;;;-2.05;100.00;99351.25;5047984;28;20048;-69
2024/02/02 05:23:52;;;;;;;5.88;3.00;;;;;;;-1.85;100.00;99387.09;5047549;28;20041;-69
2024/02/02 05:26:17;;;;;;;7.17;2.50;;;;;;;-1.98;100.00;99360.28;5049209;28;20043;-70
2024/02/02 05:28:43;;;;;;;4.40;2.00;;;;;;;-2.00;100.00;99396.09;5035962;28;20513;-66
2024/02/02 05:31:27;;;;;;;4.27;2.20;;;;;;;-1.96;100.00;99379.25;5045584;28;20040;-70
2024/02/02 05:33:53;;;;;;;3.22;2.30;;;;;;;-1.94;100.00;99406.91;5035733;28;20049;-67
2024/02/02 05:36:37;;;;;;;4.27;3.20;;;;;;;-1.87;100.00;99415.91;5035213;28;20040;-68
2024/02/02 05:39:02;;;;;;;9.98;3.85;;;;;;;-2.09;100.00;99379.34;5037946;28;20368;-72
2024/02/02 05:41:28;;;;;;;6.03;4.20;;;;;;;-1.92;100.00;99410.22;5040037;28;20104;-70
2024/02/02 05:44:12;;;;;;;8.73;3.37;;;;;;;-2.04;100.00;99394.66;5040278;28;20067;-71
2024/02/02 05:46:56;;;;;;;5.00;2.63;;;;;;;-2.01;100.00;99394.44;5040642;28;20037;-70
2024/02/02 05:49:40;;;;;;;4.65;2.72;;;;;;;-1.85;100.00;99415.78;5039486;28;20508;-67
2024/02/02 05:52:08;;;;;;;4.72;2.60;;;;;;;-2.01;100.00;99397.03;5039780;28;20136;-66
2024/02/02 05:54:52;;;;;;;7.75;2.53;;;;;;;-1.90;100.00;99412.72;5039638;28;20068;-69
2024/02/02 05:57:18;;;;;;;9.40;2.10;;;;;;;-1.93;100.00;99415.56;5038145;28;20445;-67
2024/02/02 05:59:43;;;;;;;6.10;2.30;;;;;;;-1.96;100.00;99410.56;5036793;28;20087;-67
2024/02/02 06:02:27;;;;;;;6.07;1.97;;;;;;;-1.78;100.00;99411.75;5037785;28;20042;-66
2024/02/02 06:04:53;;;;;;;8.05;2.67;;;;;;;-1.83;100.00;99419.13;5044928;28;20401;-66
2024/02/02 06:07:19;;;;;;;7.03;2.47;;;;;;;-1.77;100.00;99431.69;5048693;28;20033;-66
2024/02/02 06:09:44;;;;;;;2.07;1.87;;;;;;;-1.75;100.00;99427.19;5048887;28;20040;-68
2024/02/02 06:17:38;;;;;;;2.70;2.08;;;;;;;-1.88;100.00;99410.81;5053530;28;20056;-70
2024/02/02 06:20:24;;;;;;;2.53;2.10;;;;;;;-1.77;100.00;99442.13;5051592;28;20056;-68
2024/02/02 06:25:52;;;;;;;3.30;2.00;;;;;;;-1.85;100.00;99421.00;5049632;28;20049;-71
2024/02/02 06:28:17;;;;;;;5.77;2.33;;;;;;;-1.76;100.00;99450.78;5047470;28;20049;-69
2024/02/02 06:31:01;;;;;;;2.57;1.73;;;;;;;-1.75;100.00;99463.72;5051878;28;20128;-67
2024/02/02 06:33:45;;;;;;;3.08;2.55;;;;;;;-1.86;100.00;99450.66;5045480;28;20033;-67
2024/02/02 06:36:11;;;;;;;4.70;1.90;;;;;;;-2.20;100.00;99410.63;5051088;28;20051;-68
2024/02/02 06:38:39;;;;;;;5.90;2.30;;;;;;;-2.26;100.00;99396.28;5050629;28;20044;-67
2024/02/02 06:41:06;;;;;;;3.33;2.30;;;;;;;-1.89;100.00;99469.16;5075152;28;20055;-66
2024/02/02 06:46:15;;;;;;;4.03;2.10;;;;;;;-1.84;100.00;99474.88;5051861;28;20056;-67
2024/02/02 06:48:43;;;;;;;5.33;2.07;;;;;;;-1.89;100.00;99477.81;5049749;28;20093;-67
2024/02/02 06:51:09;;;;;;;4.60;2.08;;;;;;;-1.82;100.00;99482.56;5052062;28;20041;-67
2024/02/02 06:53:53;;;;;;;3.73;1.93;;;;;;;-1.78;100.00;99474.41;5051823;28;20370;-67
2024/02/02 06:56:38;;;;;;;5.93;2.72;;;;;;;-1.78;100.00;99484.00;5043836;28;20135;-69
2024/02/02 06:59:22;;;;;;;8.77;3.20;;;;;;;-1.82;100.00;99480.81;5047303;28;20488;-66
2024/02/02 07:02:06;;;;;;;7.70;2.95;;;;;;;-1.92;100.00;99464.19;5047182;28;20513;-69
2024/02/02 07:04:50;;;;;;;4.27;2.20;;;;;;;-1.77;100.00;99481.28;5049794;28;20536;-68
2024/02/02 07:07:17;;;;;;;3.47;2.40;;;;;;;-1.83;100.00;99471.31;5049082;28;20836;-68
2024/02/02 07:09:51;;;;;;;4.18;2.00;;;;;;;-1.83;100.00;99478.31;5052084;28;20287;-71
2024/02/02 07:12:53;;;;;;;4.32;2.08;;;;;;;-1.76;100.00;99492.53;5051796;28;20033;-69
2024/02/02 07:15:20;;;;;;;7.60;2.10;;;;;;;-1.82;100.00;99491.25;5046352;28;20152;-71
2024/02/02 07:18:23;;;;;;;5.53;2.20;;;;;;;-1.82;100.00;99495.63;5041969;28;20033;-68
2024/02/02 07:21:01;;;;;;;4.15;2.40;;;;;;;-2.10;100.00;99450.72;5048723;28;20049;-68
2024/02/02 07:23:33;;;;;;;5.20;2.45;;;;;;;-2.09;100.00;99438.50;5044017;28;20126;-72
2024/02/02 07:25:59;;;;;;;5.17;2.17;;;;;;;-1.82;100.00;99503.44;5031534;28;20123;-71
2024/02/02 07:28:37;;;;;;;4.77;2.00;;;;;;;-1.89;100.00;99513.53;5045366;28;20276;-68
2024/02/02 07:31:07;;;;;;;4.00;2.42;;;;;;;-3.07;100.00;99325.84;5049772;28;20041;-68
2024/02/02 07:36:28;;;;;;;3.45;1.80;;;;;;;-1.96;99.38;99514.94;5051870;28;20283;-66
2024/02/02 07:42:00;;;;;;;3.65;2.20;;;;;;;-2.03;97.82;99508.47;5047274;28;20033;-67
2024/02/02 07:44:26;;;;;;;7.80;2.67;;;;;;;-1.78;97.14;99521.38;5049728;28;20412;-69
2024/02/02 07:46:52;;;;;;;11.90;2.00;;;;;;;-1.70;94.70;99529.50;5050518;28;20287;-68
2024/02/02 07:49:36;;;;;;;3.20;2.08;;;;;;;-1.53;94.18;99532.59;5048637;28;20032;-66
2024/02/02 07:54:46;;;;;;;6.65;1.92;;;;;;;-1.50;90.48;99529.75;5047361;28;20109;-69
2024/02/02 07:57:11;;;;;;;5.40;2.80;;;;;;;-1.49;88.15;99524.41;5049389;28;20512;-69
2024/02/02 07:59:55;;;;;;;4.07;2.47;;;;;;;-1.37;86.80;99533.09;5046779;28;20044;-68
2024/02/02 08:02:22;;;;;;;7.60;2.15;;;;;;;-1.44;87.24;99514.47;5048569;28;20122;-71
2024/02/02 08:04:48;;;;;;;3.60;1.80;;;;;;;-1.30;84.82;99523.84;5051147;28;20413;-70
2024/02/02 08:07:13;;;;;;;3.27;2.00;;;;;;;-1.14;84.23;99532.19;5046201;28;20277;-66
2024/02/02 08:09:39;;;;;;;4.47;1.90;;;;;;;-1.01;83.61;99545.94;5050369;28;20036;-68
2024/02/02 08:15:07;;;;;;;3.03;1.70;;;;;;;-0.98;78.08;99548.31;5071480;28;20416;-68
2024/02/02 08:17:33;;;;;;;3.50;1.90;;;;;;;-1.17;79.01;99514.09;5045416;28;20288;-66
2024/02/02 08:19:59;;;;;;;2.50;1.93;;;;;;;-1.12;77.90;99539.91;5047110;28;20307;-67
2024/02/02 08:28:11;;;;;;;5.73;2.30;;;;;;;-0.90;76.96;99554.72;5046611;28;20330;-67
2024/02/02 08:30:37;;;;;;;2.10;1.63;;;;;;;-0.93;76.32;99548.78;5049590;28;20275;-69
2024/02/02 08:33:03;;;;;;;3.07;2.20;;;;;;;-1.10;75.80;99536.22;5028853;28;20413;-68
2024/02/02 08:35:28;;;;;;;2.13;1.93;;;;;;;-1.06;76.51;99532.41;5045901;28;20291;-68
2024/02/02 08:37:57;;;;;;;4.33;1.90;;;;;;;-1.11;74.92;99547.63;5048183;28;20051;-69
2024/02/02 08:40:42;;;;;;;4.22;1.98;;;;;;;-1.13;74.98;99549.53;5031122;28;20046;-68
2024/02/02 08:43:27;;;;;;;2.22;1.92;;;;;;;-1.01;75.47;99574.69;5042212;28;20127;-69
2024/02/02 08:46:12;;;;;;;7.00;2.13;;;;;;;-1.05;74.51;99575.06;5038884;28;20068;-66
2024/02/02 08:51:42;;;;;;;8.43;2.20;;;;;;;-1.05;74.63;99573.25;5042773;28;20296;-68
2024/02/02 08:54:13;;;;;;;2.60;1.70;;;;;;;-1.20;73.72;99569.19;5035880;28;20290;-67
2024/02/02 08:56:57;;;;;;;5.57;2.20;;;;;;;-1.11;74.99;99583.38;5046632;28;20365;-68
2024/02/02 08:59:52;;;;;;;7.83;1.70;;;;;;;-1.19;75.36;99557.81;5043178;28;20404;-68
2024/02/02 09:02:55;;;;;;;1.70;1.40;;;;;;;-1.05;73.82;99583.72;5044161;28;20663;-69
2024/02/02 09:05:22;;;;;;;3.77;1.73;;;;;;;-1.04;75.10;99584.56;5045886;28;20037;-69
2024/02/02 09:07:50;;;;;;;2.67;1.60;;;;;;;-1.17;74.37;99557.69;5048009;28;20283;-67
2024/02/02 09:10:31;;;;;;;4.07;2.83;;;;;;;-0.98;74.18;99590.13;5047107;28;20386;-70
2024/02/02 09:13:19;;;;;;;3.60;1.97;;;;;;;-1.09;73.32;99592.75;5045065;28;20284;-67
2024/02/02 09:15:44;;;;;;;2.70;1.20;;;;;;;-1.12;72.73;99598.22;5046462;28;20331;-68
2024/02/02 09:18:21;;;;;;;5.00;1.93;;;;;;;-1.21;72.99;99580.59;5047685;28;20307;-67
2024/02/02 09:20:49;;;;;;;2.20;1.67;;;;;;;-1.11;72.33;99599.88;5040817;28;20049;-69
2024/02/02 09:23:15;;;;;;;3.20;1.73;;;;;;;-1.18;72.96;99588.19;5045196;28;20295;-68
2024/02/02 09:26:00;;;;;;;3.40;2.10;;;;;;;-1.08;72.25;99615.31;5040666;28;20288;-68
2024/02/02 09:28:28;;;;;;;3.73;1.63;;;;;;;-1.23;72.62;99600.78;5047398;28;20041;-66
2024/02/02 09:33:47;;;;;;;2.17;1.63;;;;;;;-1.17;73.17;99600.31;5031238;28;20057;-69
2024/02/02 09:36:13;;;;;;;3.30;1.63;;;;;;;-1.08;72.46;99628.38;5048304;28;20283;-67
2024/02/02 09:38:57;;;;;;;3.93;2.00;;;;;;;-1.22;71.98;99605.06;5040310;28;20291;-70
2024/02/02 09:41:25;;;;;;;2.50;1.80;;;;;;;-1.11;72.23;99636.44;5048513;28;20383;-67
2024/02/02 09:44:09;;;;;;;2.90;1.92;;;;;;;-1.13;71.07;99612.22;5043888;28;20370;-70
2024/02/02 09:49:40;;;;;;;2.65;2.00;;;;;;;-1.09;72.00;99637.16;5043108;28;20063;-71
2024/02/02 09:52:25;;;;;;;2.40;1.83;;;;;;;-1.04;71.65;99636.81;5047340;28;20110;-70
2024/02/02 09:55:09;;;;;;;3.17;1.73;;;;;;;-0.98;72.27;99654.63;5042838;28;20142;-69
2024/02/02 09:57:57;;;;;;;4.53;1.80;;;;;;;-1.32;69.39;99644.13;5047661;28;20299;-67
2024/02/02 10:00:41;;;;;;;5.90;1.65;;;;;;;-1.25;69.43;99634.84;5039403;28;20045;-68
2024/02/02 10:03:25;;;;;;;2.83;1.93;;;;;;;-1.20;71.06;99646.75;5039060;28;20406;-69
2024/02/02 10:06:28;;;;;;;5.53;1.83;;;;;;;-1.18;70.95;99640.44;5032149;28;20275;-71
2024/02/02 10:09:12;;;;;;;2.67;2.07;;;;;;;-1.03;70.35;99659.38;5043703;28;20390;-67
2024/02/02 10:12:04;;;;;;;5.83;1.77;;;;;;;-0.99;70.61;99663.44;5047290;28;20291;-69
2024/02/02 10:18:04;;;;;;;3.37;1.60;;;;;;;-0.97;69.68;99658.91;5049391;28;20833;-70
2024/02/02 10:20:50;;;;;;;3.05;2.08;;;;;;;-1.00;69.49;99664.38;5034250;28;20280;-69
2024/02/02 10:26:20;;;;;;;3.17;1.73;;;;;;;-1.00;69.63;99665.22;5043691;28;20272;-69
2024/02/02 10:29:12;;;;;;;3.57;1.90;;;;;;;-0.84;69.08;99687.59;5039919;28;20284;-70
2024/02/02 10:35:37;;;;;;;5.37;1.67;;;;;;;-0.79;69.33;99652.28;5044684;28;20290;-70
2024/02/02 10:41:25;;;;;;;3.22;1.77;;;;;;;-0.78;68.31;99663.59;5040276;28;20878;-69
2024/02/02 10:44:09;;;;;;;4.13;2.20;;;;;;;-0.80;68.71;99676.78;5042117;28;20047;-68
2024/02/02 10:46:45;;;;;;;2.97;2.30;;;;;;;-0.82;67.57;99670.84;5045817;28;20314;-70
2024/02/02 10:52:29;;;;;;;5.93;2.20;;;;;;;-0.79;68.62;99678.44;5037999;28;20275;-70
2024/02/02 10:55:29;;;;;;;1.97;1.87;;;;;;;-0.78;67.75;99680.09;5045341;28;20412;-68
2024/02/02 10:58:02;;;;;;;2.93;1.83;;;;;;;-0.81;67.92;99679.50;5041917;28;20341;-69
2024/02/02 11:01:07;;;;;;;5.50;1.73;;;;;;;-0.86;67.88;99686.88;5036449;28;20288;-67
2024/02/02 11:03:40;;;;;;;4.80;1.80;;;;;;;-1.03;67.30;99699.41;5039546;28;20269;-68
2024/02/02 11:06:35;;;;;;;4.00;2.47;;;;;;;-1.35;66.04;99670.47;5046092;28;20276;-70
2024/02/02 11:09:22;;;;;;;4.77;2.07;;;;;;;-1.32;67.87;99682.47;5041016;28;20298;-71
2024/02/02 11:12:07;;;;;;;1.90;1.70;;;;;;;-1.38;68.59;99669.84;5038472;28;20284;-72
2024/02/02 11:14:39;;;;;;;5.40;2.27;;;;;;;-1.23;67.19;99705.28;5042806;28;20283;-69
2024/02/02 11:17:13;;;;;;;2.70;1.73;;;;;;;-1.61;69.24;99642.81;5036986;28;20797;-70
2024/02/02 11:20:08;;;;;;;3.63;2.60;;;;;;;-1.25;67.77;99702.78;5042643;28;20294;-71
2024/02/02 11:22:44;;;;;;;1.93;1.73;;;;;;;-1.26;66.69;99708.13;5044020;28;20353;-69
2024/02/02 11:28:27;;;;;;;6.17;2.10;;;;;;;-1.11;68.09;99712.22;5041700;28;20268;-70
2024/02/02 11:31:13;;;;;;;3.10;1.90;;;;;;;-0.84;66.57;99732.03;5046273;28;20264;-69
2024/02/02 11:33:56;;;;;;;2.73;2.13;;;;;;;-0.68;65.05;99732.50;5043476;28;20275;-71
2024/02/02 11:36:43;;;;;;;3.77;1.90;;;;;;;-1.22;64.05;99649.47;5045737;28;20284;-69
2024/02/02 11:39:50;;;;;;;3.13;1.93;;;;;;;-0.65;63.07;99742.75;5041560;28;20647;-68
2024/02/02 11:42:35;;;;;;;3.00;1.90;;;;;;;-1.04;62.84;99674.22;5050035;28;20297;-68
2024/02/02 11:50:42;;;;;;;2.20;1.92;;;;;;;-1.00;62.62;99738.38;5049442;28;20279;-73
2024/02/02 11:53:45;;;;;;;2.80;2.00;;;;;;;-1.04;63.18;99747.41;5050825;28;20480;-69
2024/02/02 11:56:19;;;;;;;2.93;1.80;;;;;;;-1.15;63.07;99744.75;5047406;28;20788;-71
2024/02/02 11:58:57;;;;;;;1.70;1.60;;;;;;;-1.15;63.46;99749.97;5040514;28;20398;-70
2024/02/02 12:01:35;;;;;;;4.20;2.00;;;;;;;-1.17;63.88;99762.28;5023437;28;20272;-70
2024/02/02 12:04:20;;;;;;;3.00;1.80;;;;;;;-1.21;63.53;99754.81;5036692;28;20287;-73
2024/02/02 12:10:02;;;;;;;6.57;2.10;;;;;;;-1.15;62.38;99778.72;5032271;28;20276;-73
2024/02/02 12:12:52;;;;;;;3.70;1.50;;;;;;;-1.26;61.02;99765.59;5036600;28;20287;-71
2024/02/02 12:15:19;;;;;;;;;;;;;;;-1.17;62.26;99783.19;5046648;28;20292;-73
2024/02/02 12:17:44;;;;;;;5.67;2.03;;;;;;;-1.29;63.05;99774.47;5038191;28;20430;-68
2024/02/02 12:20:17;;;;;;;7.13;2.83;;;;;;;-1.24;63.21;99781.97;5046067;28;20287;-68
2024/02/02 12:22:42;;;;;;;7.53;1.60;;;;;;;-1.31;63.70;99780.75;5038349;28;20037;-69
2024/02/02 12:27:53;;;;;;;4.10;2.10;;;;;;;-1.38;63.58;99774.31;5032985;28;20052;-70
2024/02/02 12:30:19;;;;;;;3.70;2.00;;;;;;;-1.35;63.46;99784.56;5039257;28;20276;-70
2024/02/02 12:32:53;;;;;;;3.50;2.10;;;;;;;-1.58;64.17;99747.88;5045971;28;20087;-72
2024/02/02 12:38:22;;;;;;;3.07;1.70;;;;;;;-1.42;64.16;99780.72;5043780;28;20319;-70
2024/02/02 12:40:48;;;;;;;3.47;1.60;;;;;;;-1.47;64.26;99772.34;5038388;28;20289;-70
2024/02/02 12:43:14;;;;;;;4.60;1.93;;;;;;;-1.37;64.66;99791.66;5045720;28;20131;-69
2024/02/02 12:45:43;;;;;;;2.50;2.00;;;;;;;-1.52;64.11;99777.09;5040753;28;20376;-70
2024/02/02 12:48:13;;;;;;;2.95;1.90;;;;;;;-1.43;64.54;99792.13;5015406;28;20409;-69
2024/02/02 12:54:00;;;;;;;4.90;1.80;;;;;;;-1.40;64.56;99797.13;5038910;28;20283;-69
2024/02/02 12:56:29;;;;;;;4.30;2.20;;;;;;;-1.36;64.41;99793.31;5045680;28;20784;-70
2024/02/02 12:58:55;;;;;;;5.68;2.17;;;;;;;-1.54;62.62;99765.91;5079796;28;20309;-68
2024/02/02 13:01:21;;;;;;;3.00;1.70;;;;;;;-1.47;62.45;99774.97;5043199;28;20045;-70
2024/02/02 13:03:47;;;;;;;2.63;2.27;;;;;;;-1.42;63.05;99793.78;5043126;28;20268;-68
2024/02/02 13:06:13;;;;;;;5.33;2.70;;;;;;;-1.69;63.07;99771.31;5052161;28;20349;-69
2024/02/02 13:09:40;;;;;;;5.47;1.73;;;;;;;-1.51;63.13;99812.69;5052335;28;20072;-70
2024/02/02 13:12:07;;;;;;;3.23;1.80;;;;;;;-1.60;62.83;99812.41;5029885;28;20296;-70
2024/02/02 13:14:34;;;;;;;4.55;2.33;;;;;;;-1.59;63.04;99819.31;5030761;28;20352;-72
2024/02/02 13:17:19;;;;;;;3.73;1.77;;;;;;;-1.61;62.22;99822.97;5021171;28;20042;-69
2024/02/02 13:19:47;;;;;;;10.00;2.43;;;;;;;-1.74;62.41;99804.69;5043969;28;20295;-70
2024/02/02 13:22:28;;;;;;;5.78;2.20;;;;;;;-2.15;63.04;99741.53;5049921;28;20298;-71
2024/02/02 13:24:57;;;;;;;4.47;2.33;;;;;;;-1.84;64.07;99801.06;5049196;28;20079;-71
2024/02/02 13:27:29;;;;;;;3.53;1.67;;;;;;;-1.75;63.99;99836.97;5040884;28;20304;-70
2024/02/02 13:30:01;;;;;;;2.03;1.67;;;;;;;-1.99;65.18;99817.81;5040822;28;20049;-72
2024/02/02 13:32:33;;;;;;;3.08;2.47;;;;;;;-2.12;66.40;99803.94;5040409;28;20041;-71
2024/02/02 13:35:00;;;;;;;3.43;1.80;;;;;;;-1.96;65.93;99856.75;5036753;28;20036;-70
2024/02/02 13:37:29;;;;;;;2.93;2.17;;;;;;;-2.30;66.62;99799.06;5044877;28;20287;-70
2024/02/02 13:39:59;;;;;;;7.03;2.33;;;;;;;-1.97;68.08;99860.28;5054000;28;20318;-68
2024/02/02 13:42:45;;;;;;;2.70;2.30;;;;;;;-2.13;69.19;99855.28;5050234;28;20126;-69
2024/02/02 13:45:16;;;;;;;7.93;3.73;;;;;;;-2.23;69.48;99847.25;5046788;28;20317;-70
2024/02/02 13:47:42;;;;;;;5.68;2.25;;;;;;;-2.22;70.77;99855.91;5044865;28;20850;-69
2024/02/02 13:50:29;;;;;;;4.40;2.20;;;;;;;-2.65;70.21;99784.94;5043990;28;20418;-69
2024/02/02 13:52:58;;;;;;;5.03;2.17;;;;;;;-2.14;71.73;99881.47;5037995;28;20041;-69
2024/02/02 13:55:27;;;;;;;5.35;2.50;;;;;;;-2.79;72.02;99785.03;5042498;28;20761;-71
2024/02/02 14:00:58;;;;;;;5.28;2.25;;;;;;;-2.31;73.46;99877.41;5048203;28;20353;-70
2024/02/02 14:06:08;;;;;;;5.43;2.70;;;;;;;-2.39;74.99;99896.13;5040193;28;20064;-70
2024/02/02 14:08:40;;;;;;;3.57;2.70;;;;;;;-2.35;76.26;99907.19;5049901;28;20041;-70
2024/02/02 14:11:25;;;;;;;5.03;2.60;;;;;;;-2.36;76.90;99914.19;5054244;28;20492;-70
2024/02/02 14:13:53;;;;;;;13.60;3.37;;;;;;;-2.57;78.27;99889.53;5043563;28;20055;-71